Terminal Aerodrome Forecast
Issued by NWS

Home | Current Version | Previous Version | Text Only | Print | Product List | Glossary On
Versions: 1 2 3 4 5 6 7 8 9 10 11 12 13 14 15 16 17 18 19 20 21
000
FTUS44 KLIX 022321
TAFHUM
TAF
KHUM 022321Z 0300/0324 34008KT P6SM SCT220
     FM031000 34005KT P6SM BKN010
     FM031600 01006KT P6SM OVC020
     FM031800 35005KT P6SM BKN035=

USA.gov is the U.S. government's official web portal to all federal, state and local government web resources and services.